Time;durP1;ratioP1;P1;durP2;ratioP2;P2;SDS_P1;SDS_P2;PMS_P1;PMS_P2;Temp;Humidity;BMP_temperature;BMP_pressure;BME280_temperature;BME280_humidity;BME280_pressure;Samples;Min_cycle;Max_cycle;Signal;HPM_P1;HPM_P2
2023/07/20 00:04:26;;;;;;;7.30;4.78;;;;;;;;;;12915132;22;20880;-80
2023/07/20 00:09:29;;;;;;;10.85;5.30;;;;;;;;;;12891748;22;20403;-80
2023/07/20 00:14:32;;;;;;;7.28;5.00;;;;;;;;;;12897761;22;20368;-80
2023/07/20 00:19:35;;;;;;;9.13;5.40;;;;;;;;;;12895027;22;20387;-79
2023/07/20 00:24:38;;;;;;;9.50;5.25;;;;;;;;;;12907825;22;20434;-80
2023/07/20 00:29:41;;;;;;;9.03;5.50;;;;;;;;;;12909958;22;20438;-79
2023/07/20 00:34:43;;;;;;;11.30;5.95;;;;;;;;;;12911678;22;20426;-80
2023/07/20 00:39:46;;;;;;;11.10;6.22;;;;;;;;;;12899302;22;20411;-80
2023/07/20 00:44:49;;;;;;;11.25;6.70;;;;;;;;;;12894512;22;20384;-80
2023/07/20 00:49:52;;;;;;;10.43;6.40;;;;;;;;;;12955921;22;20372;-79
2023/07/20 00:54:57;;;;;;;9.13;6.60;;;;;;;;;;13022069;22;20409;-79
2023/07/20 00:59:59;;;;;;;10.43;6.63;;;;;;;;;;13017961;22;20396;-80
2023/07/20 01:05:02;;;;;;;11.18;7.30;;;;;;;;;;13016793;22;20385;-80
2023/07/20 01:10:13;;;;;;;12.38;6.90;;;;;;;;;;13021947;22;20361;-79
2023/07/20 01:15:15;;;;;;;10.47;6.87;;;;;;;;;;13023414;22;20678;-80
2023/07/20 01:20:20;;;;;;;9.05;6.63;;;;;;;;;;13023621;22;20729;-80
2023/07/20 01:25:35;;;;;;;11.70;6.77;;;;;;;;;;13024822;22;20385;-78
2023/07/20 01:31:03;;;;;;;11.98;7.00;;;;;;;;;;13024882;22;20853;-79
2023/07/20 01:36:08;;;;;;;9.60;6.30;;;;;;;;;;13026311;22;20369;-78
2023/07/20 01:41:11;;;;;;;10.57;5.73;;;;;;;;;;13041452;22;20380;-78
2023/07/20 01:46:13;;;;;;;10.65;6.43;;;;;;;;;;13042243;22;20365;-78
2023/07/20 01:51:17;;;;;;;13.82;6.50;;;;;;;;;;13034064;22;20369;-80
2023/07/20 01:56:20;;;;;;;12.43;6.90;;;;;;;;;;13040533;22;20361;-80
2023/07/20 02:01:22;;;;;;;10.23;6.30;;;;;;;;;;13023439;22;20361;-80
2023/07/20 02:06:26;;;;;;;13.07;7.18;;;;;;;;;;13021604;22;20369;-80
2023/07/20 02:11:28;;;;;;;11.93;7.47;;;;;;;;;;13023816;22;20363;-80
2023/07/20 02:16:30;;;;;;;12.98;6.47;;;;;;;;;;13027513;22;20426;-80
2023/07/20 02:21:34;;;;;;;7.97;5.80;;;;;;;;;;13036071;22;20361;-80
2023/07/20 02:26:36;;;;;;;11.85;6.55;;;;;;;;;;13045238;22;20446;-79
2023/07/20 02:31:39;;;;;;;10.17;6.80;;;;;;;;;;13037879;22;20410;-80
2023/07/20 02:36:43;;;;;;;7.97;5.13;;;;;;;;;;13025673;22;20365;-79
2023/07/20 02:41:45;;;;;;;8.15;5.30;;;;;;;;;;13026012;22;20369;-80
2023/07/20 02:46:49;;;;;;;7.13;5.35;;;;;;;;;;13026348;22;20716;-79
2023/07/20 02:51:53;;;;;;;9.20;5.22;;;;;;;;;;13033783;22;20913;-79
2023/07/20 02:56:55;;;;;;;6.13;4.68;;;;;;;;;;13038392;22;20360;-79
2023/07/20 03:01:58;;;;;;;7.88;4.85;;;;;;;;;;13029675;22;20381;-78
2023/07/20 03:07:03;;;;;;;7.53;4.80;;;;;;;;;;13025746;22;20365;-79
2023/07/20 03:12:06;;;;;;;6.95;4.50;;;;;;;;;;13026711;22;20364;-79
2023/07/20 03:17:09;;;;;;;8.77;5.40;;;;;;;;;;13026350;22;20361;-79
2023/07/20 03:22:12;;;;;;;7.57;5.57;;;;;;;;;;13026228;22;20372;-79
2023/07/20 03:27:15;;;;;;;7.53;4.95;;;;;;;;;;13027393;22;20686;-79
2023/07/20 03:32:17;;;;;;;8.68;5.28;;;;;;;;;;13026927;22;20419;-78
2023/07/20 03:37:21;;;;;;;8.10;4.60;;;;;;;;;;13026509;22;20411;-80
2023/07/20 03:42:24;;;;;;;9.40;5.37;;;;;;;;;;13034981;22;20407;-79
2023/07/20 03:47:26;;;;;;;7.40;5.00;;;;;;;;;;13038825;22;20836;-79
2023/07/20 03:52:30;;;;;;;8.80;5.20;;;;;;;;;;13035661;22;20357;-80
2023/07/20 03:57:33;;;;;;;6.20;4.55;;;;;;;;;;13042345;22;20481;-80
2023/07/20 04:02:35;;;;;;;5.38;4.10;;;;;;;;;;13038904;22;20377;-80
2023/07/20 04:07:39;;;;;;;7.07;4.67;;;;;;;;;;13040467;22;20484;-80
2023/07/20 04:12:41;;;;;;;7.63;4.93;;;;;;;;;;13042639;22;20390;-80
2023/07/20 04:17:43;;;;;;;7.65;4.90;;;;;;;;;;13043925;22;20364;-80
2023/07/20 04:22:47;;;;;;;7.40;4.83;;;;;;;;;;13029589;22;20376;-80
2023/07/20 04:27:49;;;;;;;5.75;4.15;;;;;;;;;;13031236;22;20411;-80
2023/07/20 04:32:52;;;;;;;6.70;4.63;;;;;;;;;;13041125;22;20357;-80
2023/07/20 04:37:55;;;;;;;7.70;5.05;;;;;;;;;;13042095;22;20418;-80
2023/07/20 04:42:57;;;;;;;5.97;4.17;;;;;;;;;;13042588;22;20381;-80
2023/07/20 04:48:00;;;;;;;8.00;4.35;;;;;;;;;;13039108;22;20394;-80
2023/07/20 04:53:03;;;;;;;9.23;5.45;;;;;;;;;;13041602;22;20554;-79
2023/07/20 04:58:06;;;;;;;10.70;6.33;;;;;;;;;;13042895;22;20369;-80
2023/07/20 05:03:09;;;;;;;9.53;5.63;;;;;;;;;;13039332;22;20849;-80
2023/07/20 05:08:12;;;;;;;9.05;5.43;;;;;;;;;;13028636;22;20361;-80
2023/07/20 05:13:15;;;;;;;7.50;4.80;;;;;;;;;;13037300;22;20434;-80
2023/07/20 05:18:19;;;;;;;7.97;5.28;;;;;;;;;;13041880;22;20365;-80
2023/07/20 05:23:23;;;;;;;8.60;4.37;;;;;;;;;;13041850;22;20381;-80
2023/07/20 05:28:26;;;;;;;8.18;5.18;;;;;;;;;;13036330;22;20376;-80
2023/07/20 05:33:28;;;;;;;6.70;5.00;;;;;;;;;;13035963;22;20425;-80
2023/07/20 05:38:32;;;;;;;7.65;5.20;;;;;;;;;;13027820;22;20361;-80
2023/07/20 05:43:34;;;;;;;9.17;5.40;;;;;;;;;;13042235;22;20419;-80
2023/07/20 05:48:36;;;;;;;9.52;4.95;;;;;;;;;;13041795;22;20368;-80
2023/07/20 05:53:40;;;;;;;7.53;4.50;;;;;;;;;;13046499;22;20845;-80
2023/07/20 05:58:42;;;;;;;9.50;4.72;;;;;;;;;;13044811;22;20357;-80
2023/07/20 06:03:44;;;;;;;7.95;4.15;;;;;;;;;;13031358;22;20381;-80
2023/07/20 06:08:48;;;;;;;5.53;3.35;;;;;;;;;;13045089;22;20357;-79
2023/07/20 06:13:50;;;;;;;5.10;3.42;;;;;;;;;;13045381;22;20407;-81
2023/07/20 06:18:53;;;;;;;5.30;3.50;;;;;;;;;;13045259;22;20353;-80
2023/07/20 06:23:57;;;;;;;6.35;3.30;;;;;;;;;;13046206;22;20449;-80
2023/07/20 06:28:59;;;;;;;4.70;3.72;;;;;;;;;;13046140;22;20365;-79
2023/07/20 06:34:01;;;;;;;4.72;3.17;;;;;;;;;;13044764;22;20430;-79
2023/07/20 06:39:05;;;;;;;6.70;3.65;;;;;;;;;;13045573;22;20361;-79
2023/07/20 06:44:08;;;;;;;5.60;3.15;;;;;;;;;;13045302;22;20380;-79
2023/07/20 06:49:10;;;;;;;5.72;2.88;;;;;;;;;;13044449;22;20852;-78
2023/07/20 06:54:14;;;;;;;4.00;2.70;;;;;;;;;;13044381;22;20524;-79
2023/07/20 06:59:16;;;;;;;5.22;2.70;;;;;;;;;;13045804;22;20353;-80
2023/07/20 07:04:18;;;;;;;6.22;2.70;;;;;;;;;;13044079;22;20381;-80
2023/07/20 07:09:22;;;;;;;5.13;2.40;;;;;;;;;;13044449;22;20365;-80
2023/07/20 07:14:24;;;;;;;6.60;2.47;;;;;;;;;;13044521;22;20373;-82
2023/07/20 07:19:27;;;;;;;4.40;2.13;;;;;;;;;;13045022;22;20587;-83
2023/07/20 07:24:33;;;;;;;6.45;2.55;;;;;;;;;;13044322;22;20381;-82
2023/07/20 07:29:35;;;;;;;4.95;2.20;;;;;;;;;;13045548;22;20736;-82
2023/07/20 07:34:38;;;;;;;3.97;2.75;;;;;;;;;;13044330;22;20414;-82
2023/07/20 07:39:41;;;;;;;3.63;2.40;;;;;;;;;;13044171;22;20435;-82
2023/07/20 07:44:44;;;;;;;3.88;2.53;;;;;;;;;;13042507;22;20693;-82
2023/07/20 07:49:46;;;;;;;4.30;2.95;;;;;;;;;;13043308;22;20747;-81
2023/07/20 07:54:50;;;;;;;4.15;2.13;;;;;;;;;;13043399;22;20357;-82
2023/07/20 07:59:52;;;;;;;4.23;2.40;;;;;;;;;;13043722;22;20361;-82
2023/07/20 08:04:54;;;;;;;3.67;2.73;;;;;;;;;;13043395;22;21004;-81
2023/07/20 08:09:58;;;;;;;2.77;2.23;;;;;;;;;;13041965;22;20747;-82
2023/07/20 08:15:01;;;;;;;3.08;2.33;;;;;;;;;;13041827;22;20431;-82
2023/07/20 08:20:04;;;;;;;4.13;2.38;;;;;;;;;;13041192;22;20357;-81
2023/07/20 08:25:08;;;;;;;4.03;2.10;;;;;;;;;;13042043;22;20384;-83
2023/07/20 08:30:11;;;;;;;3.00;1.90;;;;;;;;;;13042699;22;20740;-81
2023/07/20 08:35:15;;;;;;;4.43;1.92;;;;;;;;;;13043080;22;20369;-82
2023/07/20 08:40:18;;;;;;;2.70;1.80;;;;;;;;;;13041567;22;20418;-82
2023/07/20 08:45:23;;;;;;;3.83;2.20;;;;;;;;;;13041403;22;20755;-81
2023/07/20 08:50:28;;;;;;;3.53;2.00;;;;;;;;;;13041201;22;20365;-83
2023/07/20 08:55:32;;;;;;;3.30;2.05;;;;;;;;;;13041421;22;20361;-82
2023/07/20 09:00:36;;;;;;;2.78;2.03;;;;;;;;;;13041091;22;20431;-83
2023/07/20 09:05:40;;;;;;;4.82;2.15;;;;;;;;;;13040716;22;20380;-83
2023/07/20 09:10:44;;;;;;;4.50;2.10;;;;;;;;;;13040199;22;20365;-82
2023/07/20 09:15:53;;;;;;;3.97;2.42;;;;;;;;;;13040164;22;20732;-82
2023/07/20 09:21:00;;;;;;;8.20;2.38;;;;;;;;;;13041731;22;20357;-83
2023/07/20 09:26:12;;;;;;;4.00;2.30;;;;;;;;;;13045461;22;20467;-82
2023/07/20 09:31:18;;;;;;;4.72;2.10;;;;;;;;;;13047935;22;20353;-83
2023/07/20 09:36:21;;;;;;;4.22;2.30;;;;;;;;;;13048770;22;20364;-82
2023/07/20 09:41:25;;;;;;;3.40;2.13;;;;;;;;;;13048374;22;20372;-82
2023/07/20 09:46:42;;;;;;;13.50;2.97;;;;;;;;;;13047352;22;20412;-82
2023/07/20 09:51:45;;;;;;;6.50;2.80;;;;;;;;;;13047923;22;20394;-81
2023/07/20 09:56:51;;;;;;;3.80;1.98;;;;;;;;;;13048468;22;20888;-81
2023/07/20 10:01:56;;;;;;;2.63;2.10;;;;;;;;;;13047949;22;20689;-81
2023/07/20 10:07:03;;;;;;;4.65;2.10;;;;;;;;;;13047267;22;20380;-82
2023/07/20 10:12:10;;;;;;;4.50;1.90;;;;;;;;;;13046889;22;20353;-81
2023/07/20 10:17:14;;;;;;;3.20;1.70;;;;;;;;;;13048561;22;20425;-81
2023/07/20 10:22:21;;;;;;;2.90;1.93;;;;;;;;;;13047104;22;20357;-81
2023/07/20 10:27:25;;;;;;;4.72;1.80;;;;;;;;;;13047116;22;20894;-81
2023/07/20 10:32:28;;;;;;;3.67;1.92;;;;;;;;;;13047484;22;20372;-81
2023/07/20 10:37:53;;;;;;;4.00;2.00;;;;;;;;;;13045285;22;20364;-82
2023/07/20 10:43:01;;;;;;;2.22;1.80;;;;;;;;;;13044256;22;20413;-81
2023/07/20 10:48:05;;;;;;;3.17;1.80;;;;;;;;;;13043689;22;20384;-81
2023/07/20 10:53:19;;;;;;;4.87;2.40;;;;;;;;;;13045234;22;20369;-82
2023/07/20 10:58:27;;;;;;;1.92;1.67;;;;;;;;;;13046014;22;20674;-82
2023/07/20 11:03:32;;;;;;;3.43;1.50;;;;;;;;;;13044197;22;20732;-82
2023/07/20 11:08:41;;;;;;;2.50;1.60;;;;;;;;;;13043767;22;20466;-81
2023/07/20 11:13:57;;;;;;;2.72;1.67;;;;;;;;;;13044441;22;20365;-82
2023/07/20 11:19:00;;;;;;;2.27;1.67;;;;;;;;;;13043689;22;20659;-81
2023/07/20 11:24:05;;;;;;;2.72;1.70;;;;;;;;;;13043198;22;20418;-81
2023/07/20 11:29:08;;;;;;;3.47;1.90;;;;;;;;;;13043246;22;20817;-82
2023/07/20 11:34:13;;;;;;;3.38;2.03;;;;;;;;;;13042994;22;20365;-80
2023/07/20 11:39:19;;;;;;;2.50;1.77;;;;;;;;;;13031092;22;20925;-81
2023/07/20 11:44:27;;;;;;;3.25;1.70;;;;;;;;;;13031602;22;20527;-81
2023/07/20 11:49:29;;;;;;;3.03;1.90;;;;;;;;;;13030689;22;20478;-81
2023/07/20 11:54:33;;;;;;;6.97;2.22;;;;;;;;;;13033922;22;20376;-81
2023/07/20 11:59:37;;;;;;;2.50;1.73;;;;;;;;;;13032893;22;20772;-83
2023/07/20 12:04:40;;;;;;;2.63;1.73;;;;;;;;;;13034523;22;20377;-83
2023/07/20 12:09:42;;;;;;;3.90;1.90;;;;;;;;;;13038752;22;20466;-78
2023/07/20 12:14:46;;;;;;;5.70;2.10;;;;;;;;;;13040921;22;20402;-81
2023/07/20 12:19:48;;;;;;;4.38;2.00;;;;;;;;;;13040769;22;20489;-81
2023/07/20 12:24:53;;;;;;;2.77;2.40;;;;;;;;;;13043242;22;20377;-81
2023/07/20 12:29:57;;;;;;;3.75;2.03;;;;;;;;;;13041434;22;20361;-80
2023/07/20 12:35:00;;;;;;;2.67;2.00;;;;;;;;;;13041509;22;20365;-80
2023/07/20 12:40:03;;;;;;;3.47;2.00;;;;;;;;;;13038689;22;20361;-80
2023/07/20 12:45:08;;;;;;;2.73;1.83;;;;;;;;;;13040516;22;20376;-80
2023/07/20 12:50:11;;;;;;;3.53;1.95;;;;;;;;;;13038938;22;20391;-78
2023/07/20 12:55:13;;;;;;;2.47;1.80;;;;;;;;;;13040713;22;20361;-80
2023/07/20 13:00:18;;;;;;;3.28;1.90;;;;;;;;;;13038820;22;20905;-81
2023/07/20 13:05:20;;;;;;;1.98;1.60;;;;;;;;;;13041490;22;20384;-81
2023/07/20 13:10:22;;;;;;;4.87;2.07;;;;;;;;;;13040983;22;20365;-80
2023/07/20 13:15:31;;;;;;;3.50;1.80;;;;;;;;;;13041705;22;20526;-81
2023/07/20 13:20:34;;;;;;;3.78;2.08;;;;;;;;;;13039792;22;20712;-81
2023/07/20 13:25:36;;;;;;;4.03;2.20;;;;;;;;;;13040301;22;20674;-80
2023/07/20 13:30:40;;;;;;;6.25;2.25;;;;;;;;;;13039825;22;20840;-80
2023/07/20 13:35:43;;;;;;;5.55;2.03;;;;;;;;;;13041633;22;20357;-79
2023/07/20 13:40:45;;;;;;;3.70;2.40;;;;;;;;;;13039738;22;20423;-79
2023/07/20 13:45:49;;;;;;;3.60;2.00;;;;;;;;;;13039697;22;20430;-79
2023/07/20 13:50:51;;;;;;;3.10;1.90;;;;;;;;;;13041729;22;20361;-79
2023/07/20 13:55:53;;;;;;;2.65;1.83;;;;;;;;;;13041878;22;20418;-79
2023/07/20 14:00:57;;;;;;;3.40;1.90;;;;;;;;;;13041569;22;20361;-80
2023/07/20 14:05:59;;;;;;;3.20;1.97;;;;;;;;;;13039392;22;20463;-79
2023/07/20 14:11:02;;;;;;;6.05;2.20;;;;;;;;;;13043643;22;20418;-80
2023/07/20 14:16:07;;;;;;;4.18;1.80;;;;;;;;;;13045267;22;20456;-79
2023/07/20 14:21:09;;;;;;;4.80;1.87;;;;;;;;;;13044813;22;20445;-79
2023/07/20 14:26:11;;;;;;;3.72;2.20;;;;;;;;;;13044295;22;20869;-79
2023/07/20 14:31:15;;;;;;;5.75;1.95;;;;;;;;;;13045440;22;20420;-79
2023/07/20 14:36:17;;;;;;;4.18;1.83;;;;;;;;;;13044321;22;20361;-79
2023/07/20 14:41:20;;;;;;;3.30;1.90;;;;;;;;;;13045650;22;20430;-79
2023/07/20 14:46:24;;;;;;;2.97;1.93;;;;;;;;;;13042536;22;20381;-81
2023/07/20 14:51:31;;;;;;;3.03;1.70;;;;;;;;;;13036202;22;20365;-80
2023/07/20 14:56:33;;;;;;;3.83;1.80;;;;;;;;;;13038480;22;20399;-79
2023/07/20 15:01:37;;;;;;;3.90;1.80;;;;;;;;;;13032053;22;20360;-79
2023/07/20 15:06:39;;;;;;;3.05;1.75;;;;;;;;;;13031856;22;20388;-79
2023/07/20 15:11:43;;;;;;;3.00;1.70;;;;;;;;;;13030236;22;20373;-79
2023/07/20 15:16:47;;;;;;;3.77;1.70;;;;;;;;;;13031373;22;20438;-80
2023/07/20 15:21:49;;;;;;;5.20;1.80;;;;;;;;;;13030576;22;20377;-80
2023/07/20 15:26:52;;;;;;;3.40;1.70;;;;;;;;;;13029277;22;20426;-80
2023/07/20 15:31:55;;;;;;;3.40;2.20;;;;;;;;;;13027179;22;20399;-79
2023/07/20 15:36:58;;;;;;;3.47;1.55;;;;;;;;;;13030920;22;21247;-79
2023/07/20 15:42:00;;;;;;;2.45;1.80;;;;;;;;;;13028630;22;20865;-84
2023/07/20 15:47:06;;;;;;;2.65;2.08;;;;;;;;;;13028783;22;20689;-80
2023/07/20 15:52:08;;;;;;;3.70;1.90;;;;;;;;;;13027832;22;20407;-80
2023/07/20 15:57:10;;;;;;;3.83;1.90;;;;;;;;;;13029515;22;20430;-79
2023/07/20 16:02:14;;;;;;;5.05;2.08;;;;;;;;;;13028712;22;20381;-79
2023/07/20 16:07:16;;;;;;;3.87;1.90;;;;;;;;;;13030069;22;20446;-78
2023/07/20 16:12:25;;;;;;;2.83;2.10;;;;;;;;;;13028928;22;20504;-80
2023/07/20 16:17:29;;;;;;;2.85;1.90;;;;;;;;;;13029732;22;20404;-78
2023/07/20 16:22:31;;;;;;;3.50;2.20;;;;;;;;;;13029141;22;20458;-78
2023/07/20 16:27:33;;;;;;;3.73;2.17;;;;;;;;;;13029339;22;21041;-78
2023/07/20 16:32:38;;;;;;;2.90;1.80;;;;;;;;;;13028118;22;20373;-78
2023/07/20 16:37:40;;;;;;;2.97;1.93;;;;;;;;;;13029878;22;20905;-78
2023/07/20 16:42:42;;;;;;;4.15;2.05;;;;;;;;;;13029203;22;20387;-78
2023/07/20 16:47:47;;;;;;;3.28;1.98;;;;;;;;;;13028677;22;20384;-78
2023/07/20 16:52:49;;;;;;;2.70;1.77;;;;;;;;;;13029068;22;20503;-79
2023/07/20 16:57:51;;;;;;;3.15;1.73;;;;;;;;;;13029243;22;20429;-79
2023/07/20 17:02:55;;;;;;;5.37;2.00;;;;;;;;;;13027975;22;20373;-79
2023/07/20 17:07:58;;;;;;;2.87;1.77;;;;;;;;;;13026783;22;20442;-79
2023/07/20 17:13:01;;;;;;;3.45;2.00;;;;;;;;;;13028517;22;20467;-78
2023/07/20 17:18:05;;;;;;;5.18;1.90;;;;;;;;;;13028621;22;20435;-79
2023/07/20 17:23:07;;;;;;;3.80;2.00;;;;;;;;;;13027931;22;20502;-78
2023/07/20 17:28:10;;;;;;;4.00;2.00;;;;;;;;;;13029663;22;20377;-78
2023/07/20 17:33:15;;;;;;;3.58;1.98;;;;;;;;;;13028861;22;20373;-79
2023/07/20 17:38:17;;;;;;;3.95;1.92;;;;;;;;;;13026318;22;20365;-81
2023/07/20 17:43:19;;;;;;;2.27;2.03;;;;;;;;;;13031120;22;20914;-81
2023/07/20 17:48:23;;;;;;;3.40;1.83;;;;;;;;;;13031626;22;20836;-83
2023/07/20 17:53:26;;;;;;;4.30;1.90;;;;;;;;;;13032675;22;20373;-83
2023/07/20 17:58:28;;;;;;;3.17;1.95;;;;;;;;;;13032750;22;20457;-83
2023/07/20 18:03:32;;;;;;;3.30;1.88;;;;;;;;;;13033645;22;20836;-83
2023/07/20 18:08:34;;;;;;;3.90;1.73;;;;;;;;;;13033198;22;20380;-83
2023/07/20 18:13:37;;;;;;;3.05;1.70;;;;;;;;;;13034690;22;20403;-81
2023/07/20 18:18:40;;;;;;;3.10;2.33;;;;;;;;;;13035947;22;20865;-83
2023/07/20 18:23:43;;;;;;;4.68;2.13;;;;;;;;;;13035640;22;20372;-82
2023/07/20 18:28:45;;;;;;;6.60;2.23;;;;;;;;;;13036050;22;20376;-83
2023/07/20 18:33:49;;;;;;;2.67;2.00;;;;;;;;;;13036458;22;20361;-82
2023/07/20 18:38:51;;;;;;;3.65;1.90;;;;;;;;;;13036657;22;20395;-82
2023/07/20 18:43:53;;;;;;;4.35;2.33;;;;;;;;;;13035708;22;20824;-81
2023/07/20 18:48:57;;;;;;;5.15;2.80;;;;;;;;;;13034513;22;20442;-82
2023/07/20 18:54:00;;;;;;;3.80;2.30;;;;;;;;;;13035181;22;20857;-81
2023/07/20 18:59:02;;;;;;;3.67;2.38;;;;;;;;;;13032541;22;20419;-84
2023/07/20 19:04:06;;;;;;;3.60;2.30;;;;;;;;;;13035677;22;20426;-81
2023/07/20 19:09:08;;;;;;;4.53;2.80;;;;;;;;;;13036924;22;20410;-81
2023/07/20 19:14:10;;;;;;;4.35;2.30;;;;;;;;;;13039936;22;20369;-82
2023/07/20 19:19:14;;;;;;;3.72;2.20;;;;;;;;;;13039918;22;20388;-82
2023/07/20 19:24:17;;;;;;;4.40;2.23;;;;;;;;;;13039792;22;20357;-81
2023/07/20 19:29:19;;;;;;;4.38;2.30;;;;;;;;;;13044054;22;20446;-81
2023/07/20 19:34:23;;;;;;;4.45;2.60;;;;;;;;;;13045078;22;20824;-82
2023/07/20 19:39:26;;;;;;;4.28;2.55;;;;;;;;;;13043460;22;20361;-82
2023/07/20 19:44:28;;;;;;;5.65;2.92;;;;;;;;;;13043070;22;20360;-83
2023/07/20 19:49:32;;;;;;;18.50;9.32;;;;;;;;;;13042464;22;20447;-83
2023/07/20 19:54:34;;;;;;;10.63;5.73;;;;;;;;;;13042897;22;20395;-82
2023/07/20 19:59:37;;;;;;;3.97;3.05;;;;;;;;;;13034749;22;20395;-82
2023/07/20 20:04:40;;;;;;;4.05;2.90;;;;;;;;;;13028194;22;20377;-82
2023/07/20 20:09:43;;;;;;;3.97;3.00;;;;;;;;;;13031984;22;20385;-81
2023/07/20 20:14:45;;;;;;;6.80;2.90;;;;;;;;;;13033334;22;20438;-81
2023/07/20 20:19:50;;;;;;;5.88;2.60;;;;;;;;;;13033823;22;20403;-81
2023/07/20 20:24:53;;;;;;;3.72;2.83;;;;;;;;;;13031206;22;20966;-82
2023/07/20 20:29:56;;;;;;;5.57;2.85;;;;;;;;;;13034028;22;20377;-82
2023/07/20 20:34:59;;;;;;;5.40;2.80;;;;;;;;;;13032124;22;20445;-82
2023/07/20 20:40:02;;;;;;;3.92;2.88;;;;;;;;;;13032571;22;20817;-81
2023/07/20 20:45:05;;;;;;;6.05;2.88;;;;;;;;;;13032485;22;20373;-82
2023/07/20 20:50:10;;;;;;;4.30;2.70;;;;;;;;;;13030608;22;20415;-82
2023/07/20 20:55:12;;;;;;;3.30;2.47;;;;;;;;;;13004759;22;20438;-82
2023/07/20 21:00:15;;;;;;;7.80;2.70;;;;;;;;;;13032574;22;20373;-83
2023/07/20 21:05:19;;;;;;;4.70;2.80;;;;;;;;;;13032694;22;20823;-82
2023/07/20 21:10:21;;;;;;;5.20;2.90;;;;;;;;;;13032037;22;20435;-82
2023/07/20 21:15:24;;;;;;;5.43;2.70;;;;;;;;;;13032293;22;20376;-82
2023/07/20 21:20:30;;;;;;;5.35;2.90;;;;;;;;;;13031989;22;20373;-82
2023/07/20 21:25:33;;;;;;;5.83;2.60;;;;;;;;;;13033381;22;20454;-82
2023/07/20 21:30:35;;;;;;;5.53;2.60;;;;;;;;;;13051079;22;20856;-82
2023/07/20 21:35:39;;;;;;;6.57;2.67;;;;;;;;;;13030716;22;20438;-82
2023/07/20 21:40:41;;;;;;;3.50;2.58;;;;;;;;;;13031030;22;20360;-82
2023/07/20 21:45:45;;;;;;;5.80;2.90;;;;;;;;;;13032648;22;20369;-82
2023/07/20 21:50:49;;;;;;;4.20;2.80;;;;;;;;;;13031349;22;20466;-81
2023/07/20 21:55:51;;;;;;;4.43;3.05;;;;;;;;;;13031711;22;20840;-81
2023/07/20 22:00:55;;;;;;;5.85;3.00;;;;;;;;;;13033806;22;20381;-82
2023/07/20 22:06:03;;;;;;;5.15;2.80;;;;;;;;;;13035398;22;20361;-83
2023/07/20 22:11:06;;;;;;;5.32;3.13;;;;;;;;;;13033298;22;20377;-82
2023/07/20 22:16:10;;;;;;;5.83;3.50;;;;;;;;;;13037537;22;20365;-82
2023/07/20 22:21:14;;;;;;;6.45;3.78;;;;;;;;;;13061544;22;20403;-83
2023/07/20 22:26:17;;;;;;;6.30;3.90;;;;;;;;;;13039529;22;20398;-83
2023/07/20 22:31:19;;;;;;;4.97;3.50;;;;;;;;;;13040091;22;20373;-82
2023/07/20 22:36:23;;;;;;;6.10;3.67;;;;;;;;;;13043147;22;20833;-82
2023/07/20 22:41:26;;;;;;;4.95;3.60;;;;;;;;;;13037964;22;20842;-82
2023/07/20 22:46:28;;;;;;;6.97;3.97;;;;;;;;;;13043881;22;20422;-82
2023/07/20 22:51:32;;;;;;;6.88;3.67;;;;;;;;;;13043682;22;20439;-80
2023/07/20 22:56:34;;;;;;;6.13;3.90;;;;;;;;;;13045620;22;20365;-81
2023/07/20 23:01:37;;;;;;;8.60;3.88;;;;;;;;;;13043211;22;20361;-81
2023/07/20 23:06:41;;;;;;;6.43;4.22;;;;;;;;;;13042647;22;20438;-81
2023/07/20 23:11:43;;;;;;;6.15;4.40;;;;;;;;;;13042637;22;20429;-82
2023/07/20 23:16:46;;;;;;;7.10;4.23;;;;;;;;;;13043482;22;20825;-82
2023/07/20 23:21:50;;;;;;;9.03;4.70;;;;;;;;;;13045466;22;20357;-82
2023/07/20 23:26:53;;;;;;;6.25;4.32;;;;;;;;;;13045597;22;20361;-82
2023/07/20 23:31:55;;;;;;;6.55;4.38;;;;;;;;;;13045216;22;20864;-82
2023/07/20 23:36:59;;;;;;;7.03;4.13;;;;;;;;;;13044630;22;20357;-81
2023/07/20 23:42:03;;;;;;;5.07;3.72;;;;;;;;;;13043803;22;20813;-82
2023/07/20 23:47:06;;;;;;;4.93;3.50;;;;;;;;;;13042353;22;20747;-81
2023/07/20 23:52:10;;;;;;;6.07;3.90;;;;;;;;;;13016583;22;20922;-81
2023/07/20 23:57:12;;;;;;;6.15;3.47;;;;;;;;;;13043534;22;20410;-81
